sensor_id;sensor_type;location;lat;lon;timestamp;P1;durP1;ratioP1;P2;durP2;ratioP2
6149;SDS011;3106;42.670;23.318;2023-03-01T00:01:53;10.70;;;5.47;;
6149;SDS011;3106;42.670;23.318;2023-03-01T00:04:20;10.63;;;5.20;;
6149;SDS011;3106;42.670;23.318;2023-03-01T00:06:47;6.50;;;4.20;;
6149;SDS011;3106;42.670;23.318;2023-03-01T00:09:14;8.07;;;4.20;;
6149;SDS011;3106;42.670;23.318;2023-03-01T00:11:41;6.43;;;4.33;;
6149;SDS011;3106;42.670;23.318;2023-03-01T00:14:07;8.20;;;5.10;;
6149;SDS011;3106;42.670;23.318;2023-03-01T00:16:35;7.57;;;4.27;;
6149;SDS011;3106;42.670;23.318;2023-03-01T00:19:06;7.47;;;4.73;;
6149;SDS011;3106;42.670;23.318;2023-03-01T00:21:35;6.90;;;4.60;;
6149;SDS011;3106;42.670;23.318;2023-03-01T00:24:02;7.30;;;4.73;;
6149;SDS011;3106;42.670;23.318;2023-03-01T00:26:30;6.70;;;4.40;;
6149;SDS011;3106;42.670;23.318;2023-03-01T00:28:57;7.17;;;4.23;;
6149;SDS011;3106;42.670;23.318;2023-03-01T00:31:25;5.40;;;4.40;;
6149;SDS011;3106;42.670;23.318;2023-03-01T00:33:54;5.13;;;3.63;;
6149;SDS011;3106;42.670;23.318;2023-03-01T00:36:24;6.07;;;4.17;;
6149;SDS011;3106;42.670;23.318;2023-03-01T00:38:52;5.53;;;3.53;;
6149;SDS011;3106;42.670;23.318;2023-03-01T00:41:20;8.33;;;4.27;;
6149;SDS011;3106;42.670;23.318;2023-03-01T00:43:52;6.67;;;4.20;;
6149;SDS011;3106;42.670;23.318;2023-03-01T00:46:19;6.43;;;4.10;;
6149;SDS011;3106;42.670;23.318;2023-03-01T00:48:47;6.50;;;4.20;;
6149;SDS011;3106;42.670;23.318;2023-03-01T00:51:15;5.70;;;4.10;;
6149;SDS011;3106;42.670;23.318;2023-03-01T00:53:45;6.47;;;4.10;;
6149;SDS011;3106;42.670;23.318;2023-03-01T00:56:13;6.70;;;4.07;;
6149;SDS011;3106;42.670;23.318;2023-03-01T00:58:40;5.50;;;4.13;;
6149;SDS011;3106;42.670;23.318;2023-03-01T01:01:08;7.80;;;3.50;;
6149;SDS011;3106;42.670;23.318;2023-03-01T01:03:42;7.30;;;3.80;;
6149;SDS011;3106;42.670;23.318;2023-03-01T01:06:13;5.47;;;3.77;;
6149;SDS011;3106;42.670;23.318;2023-03-01T01:08:40;6.83;;;3.77;;
6149;SDS011;3106;42.670;23.318;2023-03-01T01:11:09;6.17;;;3.77;;
6149;SDS011;3106;42.670;23.318;2023-03-01T01:13:37;6.80;;;4.00;;
6149;SDS011;3106;42.670;23.318;2023-03-01T01:16:04;9.90;;;3.80;;
6149;SDS011;3106;42.670;23.318;2023-03-01T01:18:32;4.90;;;3.13;;
6149;SDS011;3106;42.670;23.318;2023-03-01T01:21:02;5.90;;;3.40;;
6149;SDS011;3106;42.670;23.318;2023-03-01T01:23:31;4.80;;;3.10;;
6149;SDS011;3106;42.670;23.318;2023-03-01T01:26:02;3.57;;;3.00;;
6149;SDS011;3106;42.670;23.318;2023-03-01T01:28:31;5.30;;;2.50;;
6149;SDS011;3106;42.670;23.318;2023-03-01T01:31:00;2.90;;;2.23;;
6149;SDS011;3106;42.670;23.318;2023-03-01T01:33:27;2.90;;;2.60;;
6149;SDS011;3106;42.670;23.318;2023-03-01T01:35:55;3.63;;;2.73;;
6149;SDS011;3106;42.670;23.318;2023-03-01T01:38:21;2.93;;;2.37;;
6149;SDS011;3106;42.670;23.318;2023-03-01T01:40:48;2.97;;;2.30;;
6149;SDS011;3106;42.670;23.318;2023-03-01T01:43:18;5.07;;;2.83;;
6149;SDS011;3106;42.670;23.318;2023-03-01T01:45:49;5.33;;;2.90;;
6149;SDS011;3106;42.670;23.318;2023-03-01T01:48:16;4.03;;;2.90;;
6149;SDS011;3106;42.670;23.318;2023-03-01T01:50:51;3.00;;;2.57;;
6149;SDS011;3106;42.670;23.318;2023-03-01T01:53:22;3.57;;;2.50;;
6149;SDS011;3106;42.670;23.318;2023-03-01T01:55:51;3.60;;;2.33;;
6149;SDS011;3106;42.670;23.318;2023-03-01T01:58:22;2.90;;;2.70;;
6149;SDS011;3106;42.670;23.318;2023-03-01T02:00:54;3.73;;;3.00;;
6149;SDS011;3106;42.670;23.318;2023-03-01T02:03:23;3.50;;;2.90;;
6149;SDS011;3106;42.670;23.318;2023-03-01T02:05:55;4.03;;;2.77;;
6149;SDS011;3106;42.670;23.318;2023-03-01T02:08:28;2.70;;;2.50;;
6149;SDS011;3106;42.670;23.318;2023-03-01T02:10:57;4.10;;;3.03;;
6149;SDS011;3106;42.670;23.318;2023-03-01T02:13:28;3.90;;;2.50;;
6149;SDS011;3106;42.670;23.318;2023-03-01T02:15:58;3.50;;;2.90;;
6149;SDS011;3106;42.670;23.318;2023-03-01T02:18:25;2.33;;;2.10;;
6149;SDS011;3106;42.670;23.318;2023-03-01T02:20:56;2.80;;;2.60;;
6149;SDS011;3106;42.670;23.318;2023-03-01T02:23:31;2.73;;;2.37;;
6149;SDS011;3106;42.670;23.318;2023-03-01T02:26:01;2.50;;;2.30;;
6149;SDS011;3106;42.670;23.318;2023-03-01T02:28:35;2.30;;;2.10;;
6149;SDS011;3106;42.670;23.318;2023-03-01T02:31:03;3.87;;;2.67;;
6149;SDS011;3106;42.670;23.318;2023-03-01T02:33:58;2.80;;;2.53;;
6149;SDS011;3106;42.670;23.318;2023-03-01T02:36:26;4.13;;;2.97;;
6149;SDS011;3106;42.670;23.318;2023-03-01T02:38:58;3.10;;;2.57;;
6149;SDS011;3106;42.670;23.318;2023-03-01T02:41:28;3.00;;;2.70;;
6149;SDS011;3106;42.670;23.318;2023-03-01T02:44:02;2.93;;;2.47;;
6149;SDS011;3106;42.670;23.318;2023-03-01T02:46:29;2.90;;;2.50;;
6149;SDS011;3106;42.670;23.318;2023-03-01T02:48:56;3.10;;;2.63;;
6149;SDS011;3106;42.670;23.318;2023-03-01T02:51:31;3.57;;;2.73;;
6149;SDS011;3106;42.670;23.318;2023-03-01T02:54:12;3.37;;;2.80;;
6149;SDS011;3106;42.670;23.318;2023-03-01T02:56:47;4.07;;;3.07;;
6149;SDS011;3106;42.670;23.318;2023-03-01T02:59:16;3.80;;;2.70;;
6149;SDS011;3106;42.670;23.318;2023-03-01T03:01:45;4.30;;;3.17;;
6149;SDS011;3106;42.670;23.318;2023-03-01T03:04:13;5.33;;;3.23;;
6149;SDS011;3106;42.670;23.318;2023-03-01T03:06:43;3.70;;;2.93;;
6149;SDS011;3106;42.670;23.318;2023-03-01T03:09:10;3.53;;;2.87;;
6149;SDS011;3106;42.670;23.318;2023-03-01T03:11:37;4.90;;;3.83;;
6149;SDS011;3106;42.670;23.318;2023-03-01T03:14:06;4.37;;;3.10;;
6149;SDS011;3106;42.670;23.318;2023-03-01T03:16:40;5.23;;;3.50;;
6149;SDS011;3106;42.670;23.318;2023-03-01T03:19:07;3.70;;;3.20;;
6149;SDS011;3106;42.670;23.318;2023-03-01T03:21:34;6.17;;;4.13;;
6149;SDS011;3106;42.670;23.318;2023-03-01T03:24:02;5.83;;;3.63;;
6149;SDS011;3106;42.670;23.318;2023-03-01T03:26:30;6.50;;;4.30;;
6149;SDS011;3106;42.670;23.318;2023-03-01T03:28:58;9.03;;;4.57;;
6149;SDS011;3106;42.670;23.318;2023-03-01T03:31:25;7.17;;;3.90;;
6149;SDS011;3106;42.670;23.318;2023-03-01T03:33:54;4.70;;;3.33;;
6149;SDS011;3106;42.670;23.318;2023-03-01T03:36:23;5.07;;;3.90;;
6149;SDS011;3106;42.670;23.318;2023-03-01T03:38:50;5.20;;;3.90;;
6149;SDS011;3106;42.670;23.318;2023-03-01T03:41:17;5.17;;;3.40;;
6149;SDS011;3106;42.670;23.318;2023-03-01T03:43:44;4.13;;;3.10;;
6149;SDS011;3106;42.670;23.318;2023-03-01T03:46:12;4.20;;;2.90;;
6149;SDS011;3106;42.670;23.318;2023-03-01T03:48:39;3.67;;;2.90;;
6149;SDS011;3106;42.670;23.318;2023-03-01T03:51:11;4.83;;;3.30;;
6149;SDS011;3106;42.670;23.318;2023-03-01T03:53:41;4.07;;;2.90;;
6149;SDS011;3106;42.670;23.318;2023-03-01T03:56:08;4.10;;;3.10;;
6149;SDS011;3106;42.670;23.318;2023-03-01T03:58:52;6.60;;;3.23;;
6149;SDS011;3106;42.670;23.318;2023-03-01T04:01:19;3.97;;;3.00;;
6149;SDS011;3106;42.670;23.318;2023-03-01T04:03:46;4.17;;;3.07;;
6149;SDS011;3106;42.670;23.318;2023-03-01T04:06:14;3.90;;;3.10;;
6149;SDS011;3106;42.670;23.318;2023-03-01T04:08:41;5.77;;;3.13;;
6149;SDS011;3106;42.670;23.318;2023-03-01T04:11:08;6.67;;;3.60;;
6149;SDS011;3106;42.670;23.318;2023-03-01T04:13:54;9.20;;;3.80;;
6149;SDS011;3106;42.670;23.318;2023-03-01T04:16:22;6.67;;;3.30;;
6149;SDS011;3106;42.670;23.318;2023-03-01T04:18:49;3.53;;;2.80;;
6149;SDS011;3106;42.670;23.318;2023-03-01T04:21:19;4.10;;;3.10;;
6149;SDS011;3106;42.670;23.318;2023-03-01T04:23:46;4.80;;;3.20;;
6149;SDS011;3106;42.670;23.318;2023-03-01T04:26:17;5.40;;;2.90;;
6149;SDS011;3106;42.670;23.318;2023-03-01T04:28:44;4.10;;;3.10;;
6149;SDS011;3106;42.670;23.318;2023-03-01T04:31:15;3.70;;;3.17;;
6149;SDS011;3106;42.670;23.318;2023-03-01T04:36:29;5.97;;;3.60;;
6149;SDS011;3106;42.670;23.318;2023-03-01T04:38:56;4.80;;;3.07;;
6149;SDS011;3106;42.670;23.318;2023-03-01T04:41:24;6.27;;;3.20;;
6149;SDS011;3106;42.670;23.318;2023-03-01T04:43:51;5.07;;;3.03;;
6149;SDS011;3106;42.670;23.318;2023-03-01T04:46:18;5.17;;;3.47;;
6149;SDS011;3106;42.670;23.318;2023-03-01T04:48:46;6.43;;;4.10;;
6149;SDS011;3106;42.670;23.318;2023-03-01T04:51:13;5.00;;;3.50;;
6149;SDS011;3106;42.670;23.318;2023-03-01T04:53:42;6.20;;;3.90;;
6149;SDS011;3106;42.670;23.318;2023-03-01T04:56:10;5.13;;;3.50;;
6149;SDS011;3106;42.670;23.318;2023-03-01T04:58:38;4.67;;;3.40;;
6149;SDS011;3106;42.670;23.318;2023-03-01T05:01:09;4.47;;;3.30;;
6149;SDS011;3106;42.670;23.318;2023-03-01T05:03:40;4.60;;;3.20;;
6149;SDS011;3106;42.670;23.318;2023-03-01T05:06:07;5.97;;;3.80;;
6149;SDS011;3106;42.670;23.318;2023-03-01T05:08:34;6.77;;;3.10;;
6149;SDS011;3106;42.670;23.318;2023-03-01T05:11:04;3.90;;;3.03;;
6149;SDS011;3106;42.670;23.318;2023-03-01T05:13:34;6.27;;;3.13;;
6149;SDS011;3106;42.670;23.318;2023-03-01T05:16:02;4.90;;;3.13;;
6149;SDS011;3106;42.670;23.318;2023-03-01T05:18:30;5.17;;;3.50;;
6149;SDS011;3106;42.670;23.318;2023-03-01T05:21:01;5.67;;;3.13;;
6149;SDS011;3106;42.670;23.318;2023-03-01T05:23:32;5.77;;;3.50;;
6149;SDS011;3106;42.670;23.318;2023-03-01T05:26:00;4.97;;;2.87;;
6149;SDS011;3106;42.670;23.318;2023-03-01T05:28:30;4.30;;;2.93;;
6149;SDS011;3106;42.670;23.318;2023-03-01T05:30:57;4.30;;;3.17;;
6149;SDS011;3106;42.670;23.318;2023-03-01T05:33:27;5.00;;;3.70;;
6149;SDS011;3106;42.670;23.318;2023-03-01T05:35:54;7.00;;;3.70;;
6149;SDS011;3106;42.670;23.318;2023-03-01T05:38:25;4.43;;;3.33;;
6149;SDS011;3106;42.670;23.318;2023-03-01T05:40:54;5.50;;;3.20;;
6149;SDS011;3106;42.670;23.318;2023-03-01T05:43:20;6.30;;;3.70;;
6149;SDS011;3106;42.670;23.318;2023-03-01T05:45:49;4.63;;;3.77;;
6149;SDS011;3106;42.670;23.318;2023-03-01T05:48:16;5.00;;;3.50;;
6149;SDS011;3106;42.670;23.318;2023-03-01T05:50:44;5.73;;;3.30;;
6149;SDS011;3106;42.670;23.318;2023-03-01T05:53:13;4.60;;;3.50;;
6149;SDS011;3106;42.670;23.318;2023-03-01T05:55:41;7.13;;;3.40;;
6149;SDS011;3106;42.670;23.318;2023-03-01T05:58:10;4.53;;;2.60;;
6149;SDS011;3106;42.670;23.318;2023-03-01T06:00:39;5.10;;;3.20;;
6149;SDS011;3106;42.670;23.318;2023-03-01T06:03:08;6.43;;;3.70;;
6149;SDS011;3106;42.670;23.318;2023-03-01T06:05:37;8.93;;;3.10;;
6149;SDS011;3106;42.670;23.318;2023-03-01T06:08:04;5.90;;;2.70;;
6149;SDS011;3106;42.670;23.318;2023-03-01T06:10:31;13.30;;;3.30;;
6149;SDS011;3106;42.670;23.318;2023-03-01T06:12:58;5.10;;;3.40;;
6149;SDS011;3106;42.670;23.318;2023-03-01T06:15:25;7.37;;;4.00;;
6149;SDS011;3106;42.670;23.318;2023-03-01T06:17:53;7.70;;;3.77;;
6149;SDS011;3106;42.670;23.318;2023-03-01T06:20:24;6.20;;;3.77;;
6149;SDS011;3106;42.670;23.318;2023-03-01T06:22:52;7.90;;;4.10;;
6149;SDS011;3106;42.670;23.318;2023-03-01T06:25:21;8.57;;;3.97;;
6149;SDS011;3106;42.670;23.318;2023-03-01T06:27:50;6.47;;;3.97;;
6149;SDS011;3106;42.670;23.318;2023-03-01T06:30:17;8.10;;;4.40;;
6149;SDS011;3106;42.670;23.318;2023-03-01T06:32:46;8.23;;;4.53;;
6149;SDS011;3106;42.670;23.318;2023-03-01T06:35:13;16.00;;;4.23;;
6149;SDS011;3106;42.670;23.318;2023-03-01T06:37:44;8.13;;;4.70;;
6149;SDS011;3106;42.670;23.318;2023-03-01T06:40:11;11.50;;;4.50;;
6149;SDS011;3106;42.670;23.318;2023-03-01T06:42:40;7.00;;;4.13;;
6149;SDS011;3106;42.670;23.318;2023-03-01T06:45:09;13.50;;;4.10;;
6149;SDS011;3106;42.670;23.318;2023-03-01T06:47:36;6.53;;;3.90;;
6149;SDS011;3106;42.670;23.318;2023-03-01T06:50:03;6.07;;;4.20;;
6149;SDS011;3106;42.670;23.318;2023-03-01T06:52:31;9.30;;;3.97;;
6149;SDS011;3106;42.670;23.318;2023-03-01T06:54:59;7.10;;;4.20;;
6149;SDS011;3106;42.670;23.318;2023-03-01T06:57:26;8.60;;;3.90;;
6149;SDS011;3106;42.670;23.318;2023-03-01T06:59:53;6.03;;;3.67;;
6149;SDS011;3106;42.670;23.318;2023-03-01T07:02:20;6.50;;;3.80;;
6149;SDS011;3106;42.670;23.318;2023-03-01T07:04:48;5.20;;;3.07;;
6149;SDS011;3106;42.670;23.318;2023-03-01T07:07:15;14.27;;;3.60;;
6149;SDS011;3106;42.670;23.318;2023-03-01T07:09:43;7.60;;;4.20;;
6149;SDS011;3106;42.670;23.318;2023-03-01T07:12:11;7.17;;;4.40;;
6149;SDS011;3106;42.670;23.318;2023-03-01T07:14:38;5.63;;;3.63;;
6149;SDS011;3106;42.670;23.318;2023-03-01T07:17:05;9.27;;;4.10;;
6149;SDS011;3106;42.670;23.318;2023-03-01T07:19:43;7.60;;;3.90;;
6149;SDS011;3106;42.670;23.318;2023-03-01T07:22:10;6.83;;;3.17;;
6149;SDS011;3106;42.670;23.318;2023-03-01T07:24:37;4.00;;;2.80;;
6149;SDS011;3106;42.670;23.318;2023-03-01T07:27:04;5.20;;;2.90;;
6149;SDS011;3106;42.670;23.318;2023-03-01T07:29:32;6.80;;;3.20;;
6149;SDS011;3106;42.670;23.318;2023-03-01T07:32:01;6.37;;;4.20;;
6149;SDS011;3106;42.670;23.318;2023-03-01T07:34:28;5.60;;;3.20;;
6149;SDS011;3106;42.670;23.318;2023-03-01T07:36:55;6.20;;;3.90;;
6149;SDS011;3106;42.670;23.318;2023-03-01T07:39:22;5.77;;;4.20;;
6149;SDS011;3106;42.670;23.318;2023-03-01T07:41:49;7.93;;;3.30;;
6149;SDS011;3106;42.670;23.318;2023-03-01T07:44:15;11.67;;;3.27;;
6149;SDS011;3106;42.670;23.318;2023-03-01T07:46:44;11.80;;;4.27;;
6149;SDS011;3106;42.670;23.318;2023-03-01T07:49:10;5.30;;;3.90;;
6149;SDS011;3106;42.670;23.318;2023-03-01T07:51:37;7.23;;;3.77;;
6149;SDS011;3106;42.670;23.318;2023-03-01T07:54:04;8.80;;;3.77;;
6149;SDS011;3106;42.670;23.318;2023-03-01T07:56:31;6.83;;;3.57;;
6149;SDS011;3106;42.670;23.318;2023-03-01T07:59:00;7.30;;;4.20;;
6149;SDS011;3106;42.670;23.318;2023-03-01T08:01:28;5.50;;;3.40;;
6149;SDS011;3106;42.670;23.318;2023-03-01T08:03:56;5.73;;;3.70;;
6149;SDS011;3106;42.670;23.318;2023-03-01T08:06:37;15.73;;;3.50;;
6149;SDS011;3106;42.670;23.318;2023-03-01T08:09:28;8.40;;;3.03;;
6149;SDS011;3106;42.670;23.318;2023-03-01T08:12:19;8.53;;;3.30;;
6149;SDS011;3106;42.670;23.318;2023-03-01T08:14:58;4.23;;;3.13;;
6149;SDS011;3106;42.670;23.318;2023-03-01T08:17:33;4.63;;;3.30;;
6149;SDS011;3106;42.670;23.318;2023-03-01T08:22:53;12.80;;;6.20;;
6149;SDS011;3106;42.670;23.318;2023-03-01T08:28:27;5.23;;;3.30;;
6149;SDS011;3106;42.670;23.318;2023-03-01T08:30:57;7.03;;;4.40;;
6149;SDS011;3106;42.670;23.318;2023-03-01T08:33:35;7.80;;;4.20;;
6149;SDS011;3106;42.670;23.318;2023-03-01T08:36:09;8.00;;;3.70;;
6149;SDS011;3106;42.670;23.318;2023-03-01T08:38:46;9.97;;;4.60;;
6149;SDS011;3106;42.670;23.318;2023-03-01T08:41:15;9.60;;;3.93;;
6149;SDS011;3106;42.670;23.318;2023-03-01T08:44:01;6.57;;;4.40;;
6149;SDS011;3106;42.670;23.318;2023-03-01T08:46:44;8.70;;;5.10;;
6149;SDS011;3106;42.670;23.318;2023-03-01T08:49:17;7.07;;;3.97;;
6149;SDS011;3106;42.670;23.318;2023-03-01T08:52:09;5.67;;;3.97;;
6149;SDS011;3106;42.670;23.318;2023-03-01T08:54:39;6.90;;;4.00;;
6149;SDS011;3106;42.670;23.318;2023-03-01T08:57:21;6.07;;;3.40;;
6149;SDS011;3106;42.670;23.318;2023-03-01T08:59:55;6.60;;;3.60;;
6149;SDS011;3106;42.670;23.318;2023-03-01T09:02:28;11.93;;;3.37;;
6149;SDS011;3106;42.670;23.318;2023-03-01T09:04:55;5.40;;;3.50;;
6149;SDS011;3106;42.670;23.318;2023-03-01T09:07:23;5.80;;;3.60;;
6149;SDS011;3106;42.670;23.318;2023-03-01T09:09:53;7.40;;;4.00;;
6149;SDS011;3106;42.670;23.318;2023-03-01T09:12:20;4.07;;;3.20;;
6149;SDS011;3106;42.670;23.318;2023-03-01T09:14:47;5.60;;;3.97;;
6149;SDS011;3106;42.670;23.318;2023-03-01T09:17:14;5.83;;;3.70;;
6149;SDS011;3106;42.670;23.318;2023-03-01T09:19:41;4.50;;;2.80;;
6149;SDS011;3106;42.670;23.318;2023-03-01T09:22:08;9.93;;;3.80;;
6149;SDS011;3106;42.670;23.318;2023-03-01T09:24:36;3.43;;;2.80;;
6149;SDS011;3106;42.670;23.318;2023-03-01T09:27:03;6.30;;;2.97;;
6149;SDS011;3106;42.670;23.318;2023-03-01T09:29:33;19.13;;;2.90;;
6149;SDS011;3106;42.670;23.318;2023-03-01T09:32:01;5.23;;;2.90;;
6149;SDS011;3106;42.670;23.318;2023-03-01T09:34:28;8.73;;;3.23;;
6149;SDS011;3106;42.670;23.318;2023-03-01T09:36:54;14.27;;;3.27;;
6149;SDS011;3106;42.670;23.318;2023-03-01T09:39:27;5.50;;;2.77;;
6149;SDS011;3106;42.670;23.318;2023-03-01T09:41:58;6.43;;;3.00;;
6149;SDS011;3106;42.670;23.318;2023-03-01T09:44:29;2.60;;;2.30;;
6149;SDS011;3106;42.670;23.318;2023-03-01T09:47:02;5.70;;;2.93;;
6149;SDS011;3106;42.670;23.318;2023-03-01T09:49:30;4.13;;;2.47;;
6149;SDS011;3106;42.670;23.318;2023-03-01T09:52:01;2.20;;;2.00;;
6149;SDS011;3106;42.670;23.318;2023-03-01T09:54:40;4.30;;;2.57;;
6149;SDS011;3106;42.670;23.318;2023-03-01T09:57:14;5.20;;;2.63;;
6149;SDS011;3106;42.670;23.318;2023-03-01T10:00:00;3.93;;;2.13;;
6149;SDS011;3106;42.670;23.318;2023-03-01T10:02:47;11.23;;;2.47;;
6149;SDS011;3106;42.670;23.318;2023-03-01T10:05:28;3.50;;;2.10;;
6149;SDS011;3106;42.670;23.318;2023-03-01T10:08:19;4.70;;;2.23;;
6149;SDS011;3106;42.670;23.318;2023-03-01T10:10:55;16.90;;;2.37;;
6149;SDS011;3106;42.670;23.318;2023-03-01T10:13:25;14.30;;;2.20;;
6149;SDS011;3106;42.670;23.318;2023-03-01T10:15:56;3.57;;;2.50;;
6149;SDS011;3106;42.670;23.318;2023-03-01T10:18:28;5.47;;;3.10;;
6149;SDS011;3106;42.670;23.318;2023-03-01T10:21:05;3.67;;;2.20;;
6149;SDS011;3106;42.670;23.318;2023-03-01T10:23:39;2.40;;;2.20;;
6149;SDS011;3106;42.670;23.318;2023-03-01T10:26:08;3.30;;;2.70;;
6149;SDS011;3106;42.670;23.318;2023-03-01T10:28:49;5.37;;;3.00;;
6149;SDS011;3106;42.670;23.318;2023-03-01T10:31:36;4.00;;;2.47;;
6149;SDS011;3106;42.670;23.318;2023-03-01T10:34:15;3.40;;;2.37;;
6149;SDS011;3106;42.670;23.318;2023-03-01T10:36:45;7.50;;;2.93;;
6149;SDS011;3106;42.670;23.318;2023-03-01T10:39:16;4.40;;;2.90;;
6149;SDS011;3106;42.670;23.318;2023-03-01T10:41:52;11.20;;;2.97;;
6149;SDS011;3106;42.670;23.318;2023-03-01T10:44:36;7.57;;;3.10;;
6149;SDS011;3106;42.670;23.318;2023-03-01T10:47:09;3.53;;;2.90;;
6149;SDS011;3106;42.670;23.318;2023-03-01T10:49:47;3.77;;;2.87;;
6149;SDS011;3106;42.670;23.318;2023-03-01T10:52:19;4.43;;;2.80;;
6149;SDS011;3106;42.670;23.318;2023-03-01T10:54:51;3.60;;;3.00;;
6149;SDS011;3106;42.670;23.318;2023-03-01T10:57:27;4.53;;;2.97;;
6149;SDS011;3106;42.670;23.318;2023-03-01T11:00:14;4.60;;;3.10;;
6149;SDS011;3106;42.670;23.318;2023-03-01T11:02:47;3.83;;;2.93;;
6149;SDS011;3106;42.670;23.318;2023-03-01T11:05:20;5.23;;;3.20;;
6149;SDS011;3106;42.670;23.318;2023-03-01T11:10:28;4.73;;;2.70;;
6149;SDS011;3106;42.670;23.318;2023-03-01T11:13:05;9.70;;;2.60;;
6149;SDS011;3106;42.670;23.318;2023-03-01T11:15:35;4.60;;;2.63;;
6149;SDS011;3106;42.670;23.318;2023-03-01T11:18:02;12.53;;;2.47;;
6149;SDS011;3106;42.670;23.318;2023-03-01T11:20:29;4.57;;;2.70;;
6149;SDS011;3106;42.670;23.318;2023-03-01T11:22:59;4.80;;;3.40;;
6149;SDS011;3106;42.670;23.318;2023-03-01T11:25:31;4.90;;;3.30;;
6149;SDS011;3106;42.670;23.318;2023-03-01T11:28:01;3.43;;;2.77;;
6149;SDS011;3106;42.670;23.318;2023-03-01T11:30:31;5.67;;;3.10;;
6149;SDS011;3106;42.670;23.318;2023-03-01T11:33:05;4.43;;;3.30;;
6149;SDS011;3106;42.670;23.318;2023-03-01T11:35:41;3.63;;;3.00;;
6149;SDS011;3106;42.670;23.318;2023-03-01T11:38:15;4.13;;;2.63;;
6149;SDS011;3106;42.670;23.318;2023-03-01T11:40:46;2.93;;;2.50;;
6149;SDS011;3106;42.670;23.318;2023-03-01T11:43:19;3.67;;;2.90;;
6149;SDS011;3106;42.670;23.318;2023-03-01T11:52:05;5.10;;;3.83;;
6149;SDS011;3106;42.670;23.318;2023-03-01T11:54:46;4.67;;;3.13;;
6149;SDS011;3106;42.670;23.318;2023-03-01T11:57:28;4.23;;;3.40;;
6149;SDS011;3106;42.670;23.318;2023-03-01T12:00:15;4.80;;;3.60;;
6149;SDS011;3106;42.670;23.318;2023-03-01T12:12:31;5.73;;;4.07;;
6149;SDS011;3106;42.670;23.318;2023-03-01T12:18:16;5.23;;;4.00;;
6149;SDS011;3106;42.670;23.318;2023-03-01T12:20:58;11.00;;;4.50;;
6149;SDS011;3106;42.670;23.318;2023-03-01T12:23:39;11.67;;;4.00;;
6149;SDS011;3106;42.670;23.318;2023-03-01T12:26:29;5.40;;;3.80;;
6149;SDS011;3106;42.670;23.318;2023-03-01T12:29:07;5.27;;;3.60;;
6149;SDS011;3106;42.670;23.318;2023-03-01T12:34:49;4.87;;;3.63;;
6149;SDS011;3106;42.670;23.318;2023-03-01T12:37:32;9.43;;;4.47;;
6149;SDS011;3106;42.670;23.318;2023-03-01T12:40:14;6.30;;;3.53;;
6149;SDS011;3106;42.670;23.318;2023-03-01T12:42:53;14.00;;;4.30;;
6149;SDS011;3106;42.670;23.318;2023-03-01T12:45:39;5.90;;;3.83;;
6149;SDS011;3106;42.670;23.318;2023-03-01T12:48:19;8.93;;;4.63;;
6149;SDS011;3106;42.670;23.318;2023-03-01T12:50:53;6.40;;;4.47;;
6149;SDS011;3106;42.670;23.318;2023-03-01T12:53:23;4.63;;;3.70;;
6149;SDS011;3106;42.670;23.318;2023-03-01T12:55:51;5.60;;;3.67;;
6149;SDS011;3106;42.670;23.318;2023-03-01T12:58:23;5.87;;;4.10;;
6149;SDS011;3106;42.670;23.318;2023-03-01T13:01:01;9.43;;;4.50;;
6149;SDS011;3106;42.670;23.318;2023-03-01T13:03:42;7.60;;;4.40;;
6149;SDS011;3106;42.670;23.318;2023-03-01T13:06:28;5.70;;;4.30;;
6149;SDS011;3106;42.670;23.318;2023-03-01T13:09:04;7.70;;;4.30;;
6149;SDS011;3106;42.670;23.318;2023-03-01T13:11:40;5.77;;;3.90;;
6149;SDS011;3106;42.670;23.318;2023-03-01T13:17:20;5.77;;;3.77;;
6149;SDS011;3106;42.670;23.318;2023-03-01T13:20:01;8.10;;;4.80;;
6149;SDS011;3106;42.670;23.318;2023-03-01T13:22:30;6.33;;;3.63;;
6149;SDS011;3106;42.670;23.318;2023-03-01T13:25:10;6.67;;;3.60;;
6149;SDS011;3106;42.670;23.318;2023-03-01T13:27:40;4.60;;;3.30;;
6149;SDS011;3106;42.670;23.318;2023-03-01T13:30:37;8.63;;;3.87;;
6149;SDS011;3106;42.670;23.318;2023-03-01T13:36:45;6.50;;;4.30;;
6149;SDS011;3106;42.670;23.318;2023-03-01T13:39:30;9.10;;;5.10;;
6149;SDS011;3106;42.670;23.318;2023-03-01T13:42:25;6.97;;;4.33;;
6149;SDS011;3106;42.670;23.318;2023-03-01T13:44:58;10.63;;;4.20;;
6149;SDS011;3106;42.670;23.318;2023-03-01T13:47:26;10.43;;;4.50;;
6149;SDS011;3106;42.670;23.318;2023-03-01T13:49:55;5.37;;;4.13;;
6149;SDS011;3106;42.670;23.318;2023-03-01T13:52:29;11.53;;;4.53;;
6149;SDS011;3106;42.670;23.318;2023-03-01T13:55:05;7.30;;;3.83;;
6149;SDS011;3106;42.670;23.318;2023-03-01T13:57:44;7.40;;;4.43;;
6149;SDS011;3106;42.670;23.318;2023-03-01T14:00:26;7.90;;;5.03;;
6149;SDS011;3106;42.670;23.318;2023-03-01T14:03:15;12.67;;;4.20;;
6149;SDS011;3106;42.670;23.318;2023-03-01T14:05:50;7.27;;;4.40;;
6149;SDS011;3106;42.670;23.318;2023-03-01T14:08:26;7.37;;;4.20;;
6149;SDS011;3106;42.670;23.318;2023-03-01T14:11:08;8.40;;;4.17;;
6149;SDS011;3106;42.670;23.318;2023-03-01T14:14:05;7.70;;;3.80;;
6149;SDS011;3106;42.670;23.318;2023-03-01T14:16:58;7.80;;;4.30;;
6149;SDS011;3106;42.670;23.318;2023-03-01T14:19:38;6.63;;;3.70;;
6149;SDS011;3106;42.670;23.318;2023-03-01T14:22:12;6.13;;;4.30;;
6149;SDS011;3106;42.670;23.318;2023-03-01T14:24:46;6.43;;;4.03;;
6149;SDS011;3106;42.670;23.318;2023-03-01T14:27:15;6.10;;;3.73;;
6149;SDS011;3106;42.670;23.318;2023-03-01T14:29:42;8.70;;;3.90;;
6149;SDS011;3106;42.670;23.318;2023-03-01T14:32:10;5.93;;;3.57;;
6149;SDS011;3106;42.670;23.318;2023-03-01T14:34:43;8.80;;;4.03;;
6149;SDS011;3106;42.670;23.318;2023-03-01T14:37:17;10.90;;;4.10;;
6149;SDS011;3106;42.670;23.318;2023-03-01T14:39:47;5.00;;;2.93;;
6149;SDS011;3106;42.670;23.318;2023-03-01T14:42:14;4.50;;;3.10;;
6149;SDS011;3106;42.670;23.318;2023-03-01T14:44:42;5.37;;;3.50;;
6149;SDS011;3106;42.670;23.318;2023-03-01T14:47:11;8.07;;;3.13;;
6149;SDS011;3106;42.670;23.318;2023-03-01T14:49:40;8.50;;;3.20;;
6149;SDS011;3106;42.670;23.318;2023-03-01T14:52:17;5.93;;;3.20;;
6149;SDS011;3106;42.670;23.318;2023-03-01T14:54:46;5.47;;;3.37;;
6149;SDS011;3106;42.670;23.318;2023-03-01T14:57:17;7.33;;;3.37;;
6149;SDS011;3106;42.670;23.318;2023-03-01T14:59:48;7.27;;;3.57;;
6149;SDS011;3106;42.670;23.318;2023-03-01T15:02:18;6.47;;;3.10;;
6149;SDS011;3106;42.670;23.318;2023-03-01T15:04:49;4.43;;;3.07;;
6149;SDS011;3106;42.670;23.318;2023-03-01T15:07:22;9.13;;;3.60;;
6149;SDS011;3106;42.670;23.318;2023-03-01T15:09:52;8.00;;;3.20;;
6149;SDS011;3106;42.670;23.318;2023-03-01T15:12:36;4.27;;;3.20;;
6149;SDS011;3106;42.670;23.318;2023-03-01T15:18:00;6.70;;;3.70;;
6149;SDS011;3106;42.670;23.318;2023-03-01T15:20:31;6.70;;;4.03;;
6149;SDS011;3106;42.670;23.318;2023-03-01T15:23:03;6.77;;;3.50;;
6149;SDS011;3106;42.670;23.318;2023-03-01T15:25:31;6.30;;;3.87;;
6149;SDS011;3106;42.670;23.318;2023-03-01T15:28:00;11.03;;;3.80;;
6149;SDS011;3106;42.670;23.318;2023-03-01T15:30:29;8.40;;;3.43;;
6149;SDS011;3106;42.670;23.318;2023-03-01T15:36:01;6.10;;;4.10;;
6149;SDS011;3106;42.670;23.318;2023-03-01T15:38:32;5.60;;;4.00;;
6149;SDS011;3106;42.670;23.318;2023-03-01T15:41:04;7.23;;;4.67;;
6149;SDS011;3106;42.670;23.318;2023-03-01T15:43:39;7.87;;;4.30;;
6149;SDS011;3106;42.670;23.318;2023-03-01T15:46:17;6.53;;;3.60;;
6149;SDS011;3106;42.670;23.318;2023-03-01T15:48:49;8.10;;;4.47;;
6149;SDS011;3106;42.670;23.318;2023-03-01T15:51:18;6.90;;;4.13;;
6149;SDS011;3106;42.670;23.318;2023-03-01T15:53:56;8.43;;;4.67;;
6149;SDS011;3106;42.670;23.318;2023-03-01T15:56:26;8.60;;;5.00;;
6149;SDS011;3106;42.670;23.318;2023-03-01T15:58:57;9.07;;;4.30;;
6149;SDS011;3106;42.670;23.318;2023-03-01T16:01:25;8.33;;;4.30;;
6149;SDS011;3106;42.670;23.318;2023-03-01T16:03:52;10.57;;;4.60;;
6149;SDS011;3106;42.670;23.318;2023-03-01T16:06:19;6.27;;;3.70;;
6149;SDS011;3106;42.670;23.318;2023-03-01T16:08:46;13.50;;;4.23;;
6149;SDS011;3106;42.670;23.318;2023-03-01T16:11:15;10.00;;;4.00;;
6149;SDS011;3106;42.670;23.318;2023-03-01T16:13:44;8.27;;;4.60;;